Time;durP1;ratioP1;P1;durP2;ratioP2;P2;SDS_P1;SDS_P2;PMS_P1;PMS_P2;Temp;Humidity;BMP_temperature;BMP_pressure;BME280_temperature;BME280_humidity;BME280_pressure;Samples;Min_cycle;Max_cycle;Signal;HPM_P1;HPM_P2
2022/02/13 00:02:06;;;;;;;10.48;6.08;;;;;;;-0.65;79.37;102728.02;1745255;81;21549;-75
2022/02/13 00:04:35;;;;;;;13.30;7.45;;;;;;;-0.66;79.44;102725.43;1744680;81;21367;-75
2022/02/13 00:07:02;;;;;;;12.13;6.03;;;;;;;-0.66;79.57;102722.85;1744617;81;21497;-75
2022/02/13 00:09:30;;;;;;;8.63;5.87;;;;;;;-0.68;79.48;102721.95;1744685;82;20925;-74
2022/02/13 00:12:00;;;;;;;8.10;4.97;;;;;;;-0.70;79.62;102724.91;1744692;81;21355;-74
2022/02/13 00:14:28;;;;;;;13.50;6.67;;;;;;;-0.73;79.65;102723.57;1744736;81;22003;-75
2022/02/13 00:16:55;;;;;;;10.13;6.28;;;;;;;-0.76;79.78;102727.35;1744744;82;20960;-74
2022/02/13 00:19:22;;;;;;;9.73;6.25;;;;;;;-0.77;79.87;102729.49;1745495;82;20972;-72
2022/02/13 00:21:49;;;;;;;11.65;7.12;;;;;;;-0.78;79.90;102732.46;1745282;81;20993;-72
2022/02/13 00:24:16;;;;;;;10.20;5.47;;;;;;;-0.78;79.92;102728.59;1745916;81;20932;-72
2022/02/13 00:26:43;;;;;;;7.40;5.50;;;;;;;-0.77;79.97;102729.49;1746892;81;21135;-73
2022/02/13 00:29:10;;;;;;;8.30;6.67;;;;;;;-0.80;79.85;102724.25;1748008;81;20917;-75
2022/02/13 00:31:37;;;;;;;7.47;5.10;;;;;;;-0.82;79.91;102733.26;1748088;82;20956;-74
2022/02/13 00:34:05;;;;;;;11.18;6.22;;;;;;;-0.81;80.15;102736.27;1747793;82;20928;-74
2022/02/13 00:36:32;;;;;;;6.12;4.80;;;;;;;-0.81;80.20;102731.55;1747439;81;20971;-75
2022/02/13 00:38:59;;;;;;;11.20;4.45;;;;;;;-0.82;80.03;102737.52;1746342;80;21043;-77
2022/02/13 00:41:26;;;;;;;6.95;4.78;;;;;;;-0.84;80.13;102742.23;1745355;81;20881;-75
2022/02/13 00:43:54;;;;;;;7.10;4.53;;;;;;;-0.87;80.17;102737.03;1744795;81;20976;-75
2022/02/13 00:46:22;;;;;;;7.75;5.15;;;;;;;-0.90;80.35;102735.66;1745061;80;21386;-75
2022/02/13 00:48:49;;;;;;;9.78;5.10;;;;;;;-0.89;80.44;102727.50;1745029;81;21370;-77
2022/02/13 00:51:16;;;;;;;11.48;5.83;;;;;;;-0.91;80.40;102734.32;1745206;82;21101;-74
2022/02/13 00:53:43;;;;;;;12.28;6.37;;;;;;;-0.96;80.44;102735.52;1744627;81;21473;-74
2022/02/13 00:56:10;;;;;;;16.00;7.25;;;;;;;-0.96;80.51;102735.52;1747122;81;20948;-73
2022/02/13 00:58:37;;;;;;;15.90;7.00;;;;;;;-0.96;80.57;102740.66;1757996;81;20904;-74
2022/02/13 01:01:04;;;;;;;13.83;7.05;;;;;;;-0.96;80.63;102741.95;1757939;81;21023;-74
2022/02/13 01:03:31;;;;;;;10.98;6.58;;;;;;;-0.96;80.53;102746.23;1758012;81;21122;-75
2022/02/13 01:05:58;;;;;;;13.78;6.70;;;;;;;-0.98;80.56;102750.48;1758134;81;21446;-75
2022/02/13 01:08:25;;;;;;;13.03;6.70;;;;;;;-0.99;80.44;102751.34;1757919;80;22166;-75
2022/02/13 01:10:52;;;;;;;10.70;6.03;;;;;;;-1.02;80.59;102746.98;1757990;81;21023;-75
2022/02/13 01:13:19;;;;;;;13.15;6.80;;;;;;;-1.02;80.65;102750.85;1758020;81;20932;-76
2022/02/13 01:15:46;;;;;;;10.88;6.03;;;;;;;-1.03;80.61;102755.95;1757854;81;21552;-76
2022/02/13 01:18:14;;;;;;;10.30;6.70;;;;;;;-1.04;80.70;102752.52;1757900;81;20877;-76
2022/02/13 01:20:41;;;;;;;15.13;8.00;;;;;;;-1.04;80.68;102751.23;1757881;80;20964;-77
2022/02/13 01:23:08;;;;;;;11.38;7.30;;;;;;;-1.07;80.60;102755.01;1757901;80;20861;-75
2022/02/13 01:25:36;;;;;;;10.15;6.50;;;;;;;-1.09;80.74;102754.10;1757947;81;20935;-77
2022/02/13 01:28:04;;;;;;;8.65;5.70;;;;;;;-1.10;80.72;102762.25;1757988;80;21777;-77
2022/02/13 01:30:35;;;;;;;9.90;5.15;;;;;;;-1.10;80.80;102763.96;1757843;81;21014;-77
2022/02/13 01:33:03;;;;;;;14.75;6.42;;;;;;;-1.09;80.90;102772.13;1758042;81;20896;-76
2022/02/13 01:35:30;;;;;;;11.15;6.05;;;;;;;-1.07;80.88;102771.35;1758086;81;20947;-77
2022/02/13 01:37:58;;;;;;;10.88;6.60;;;;;;;-1.06;80.87;102767.92;1758000;81;20892;-76
2022/02/13 01:40:28;;;;;;;11.15;7.53;;;;;;;-1.04;80.66;102778.27;1757998;80;20892;-76
2022/02/13 01:42:54;;;;;;;7.50;5.37;;;;;;;-1.08;80.62;102768.73;1758034;81;20893;-77
2022/02/13 01:45:22;;;;;;;11.63;6.78;;;;;;;-1.10;80.73;102769.11;1757984;81;20968;-78
2022/02/13 01:47:49;;;;;;;11.08;7.30;;;;;;;-1.12;80.78;102775.92;1757922;80;21423;-77
2022/02/13 01:50:16;;;;;;;17.73;8.53;;;;;;;-1.13;81.00;102777.64;1758191;81;20916;-77
2022/02/13 01:52:42;;;;;;;13.75;8.50;;;;;;;-1.09;81.13;102775.59;1757997;81;22179;-77
2022/02/13 01:55:10;;;;;;;13.13;7.62;;;;;;;-1.05;81.14;102782.52;1757707;81;20932;-77
2022/02/13 01:57:38;;;;;;;7.55;5.60;;;;;;;-1.01;81.00;102782.61;1749225;81;20932;-77
2022/02/13 02:00:07;;;;;;;12.58;7.37;;;;;;;-0.96;80.90;102783.58;1744825;82;20983;-75
2022/02/13 02:02:37;;;;;;;10.32;6.28;;;;;;;-0.94;80.76;102780.62;1744677;81;20889;-77
2022/02/13 02:05:05;;;;;;;11.90;7.03;;;;;;;-0.93;80.49;102775.52;1744716;81;22066;-77
2022/02/13 02:07:32;;;;;;;11.22;7.25;;;;;;;-0.93;80.23;102775.52;1744677;80;20838;-77
2022/02/13 02:09:59;;;;;;;13.55;8.68;;;;;;;-0.94;80.18;102774.19;1744626;82;21019;-77
2022/02/13 02:12:26;;;;;;;14.60;8.98;;;;;;;-0.93;80.22;102774.23;1744715;81;20940;-77
2022/02/13 02:14:54;;;;;;;12.37;8.55;;;;;;;-0.92;80.26;102778.53;1744743;82;20972;-77
2022/02/13 02:17:22;;;;;;;11.68;6.53;;;;;;;-0.91;80.25;102779.00;1744700;80;21168;-78
2022/02/13 02:19:48;;;;;;;11.05;6.75;;;;;;;-0.90;80.11;102783.72;1744651;81;20842;-76
2022/02/13 02:22:20;;;;;;;10.53;5.90;;;;;;;-0.91;80.02;102785.44;1744782;81;21461;-77
2022/02/13 02:24:45;;;;;;;10.93;7.17;;;;;;;-0.91;80.01;102781.97;1744421;81;21449;-77
2022/02/13 02:27:13;;;;;;;12.95;7.35;;;;;;;-0.93;79.93;102784.53;1745129;81;21575;-79
2022/02/13 02:29:39;;;;;;;12.40;7.12;;;;;;;-0.95;79.98;102784.91;1744484;81;21118;-76
2022/02/13 02:32:11;;;;;;;15.90;8.43;;;;;;;-0.95;79.98;102785.34;1744497;82;20916;-76
2022/02/13 02:34:40;;;;;;;13.58;9.45;;;;;;;-0.95;79.96;102786.63;1744487;80;20920;-77
2022/02/13 02:37:08;;;;;;;17.00;8.60;;;;;;;-1.00;79.85;102786.91;1744540;82;20858;-77
2022/02/13 02:39:35;;;;;;;14.05;9.63;;;;;;;-1.02;79.85;102783.43;1744813;82;20937;-76
2022/02/13 02:42:02;;;;;;;11.95;8.20;;;;;;;-1.08;79.90;102791.48;1744547;80;21156;-77
2022/02/13 02:44:33;;;;;;;15.88;10.13;;;;;;;-1.10;79.94;102795.72;1744622;81;20940;-76
2022/02/13 02:46:59;;;;;;;11.60;8.30;;;;;;;-1.11;79.95;102789.23;1744533;82;20980;-76
2022/02/13 02:49:27;;;;;;;12.25;8.58;;;;;;;-1.11;80.00;102791.81;1744458;81;20928;-74
2022/02/13 02:51:54;;;;;;;13.40;8.58;;;;;;;-1.11;80.04;102790.13;1744536;81;20901;-74
2022/02/13 02:54:20;;;;;;;13.80;8.73;;;;;;;-1.10;80.02;102797.43;1744867;81;21102;-75
2022/02/13 02:56:48;;;;;;;14.95;9.73;;;;;;;-1.11;80.00;102796.56;1747047;80;20928;-75
2022/02/13 02:59:15;;;;;;;11.88;8.53;;;;;;;-1.12;80.00;102805.11;1757906;80;20963;-76
2022/02/13 03:01:42;;;;;;;16.37;10.32;;;;;;;-1.12;79.99;102807.69;1757663;81;21003;-76
2022/02/13 03:04:09;;;;;;;14.00;8.50;;;;;;;-1.13;79.99;102800.81;1757862;81;20870;-77
2022/02/13 03:06:36;;;;;;;14.85;9.18;;;;;;;-1.11;79.98;102807.25;1757821;81;21129;-76
2022/02/13 03:11:33;;;;;;;14.07;10.08;;;;;;;-1.06;79.94;102809.55;1797887;79;23131;-75
2022/02/13 03:14:00;;;;;;;13.83;8.43;;;;;;;-1.12;79.82;102809.39;1758405;80;21006;-76
2022/02/13 03:16:27;;;;;;;13.15;9.20;;;;;;;-1.13;79.77;102812.82;1758290;81;22001;-75
2022/02/13 03:18:54;;;;;;;16.97;11.43;;;;;;;-1.14;79.54;102812.34;1758259;80;20837;-77
2022/02/13 03:21:22;;;;;;;13.88;8.88;;;;;;;-1.16;79.35;102812.72;1758806;80;21002;-75
2022/02/13 03:23:50;;;;;;;11.30;8.88;;;;;;;-1.20;79.44;102819.91;1758450;81;20991;-76
2022/02/13 03:26:18;;;;;;;15.50;9.90;;;;;;;-1.20;79.52;102824.67;1759590;81;20935;-73
2022/02/13 03:28:45;;;;;;;11.18;8.08;;;;;;;-1.19;79.58;102826.82;1759427;80;21147;-74
2022/02/13 03:31:12;;;;;;;15.23;8.60;;;;;;;-1.19;79.58;102822.95;1758317;80;20881;-76
2022/02/13 03:33:39;;;;;;;12.80;8.35;;;;;;;-1.20;79.53;102819.91;1758421;80;21452;-75
2022/02/13 03:36:06;;;;;;;11.90;8.05;;;;;;;-1.21;79.55;102812.62;1758534;80;20888;-76
2022/02/13 03:38:34;;;;;;;14.95;7.92;;;;;;;-1.21;79.61;102805.31;1758368;81;21431;-76
2022/02/13 03:41:01;;;;;;;12.10;9.10;;;;;;;-1.21;79.57;102807.89;1758750;80;21099;-75
2022/02/13 03:43:28;;;;;;;13.70;8.83;;;;;;;-1.21;79.48;102806.18;1758279;80;21429;-78
2022/02/13 03:45:55;;;;;;;14.13;8.15;;;;;;;-1.20;79.42;102808.33;1758628;81;20877;-76
2022/02/13 03:48:23;;;;;;;11.53;8.00;;;;;;;-1.25;79.28;102806.51;1758360;80;21363;-76
2022/02/13 03:50:50;;;;;;;13.70;8.53;;;;;;;-1.26;79.28;102811.22;1758542;80;20932;-76
2022/02/13 03:53:16;;;;;;;13.75;8.30;;;;;;;-1.28;79.44;102814.17;1758402;81;21172;-75
2022/02/13 03:55:43;;;;;;;11.93;8.98;;;;;;;-1.28;79.68;102812.88;1758589;81;20852;-76
2022/02/13 03:58:10;;;;;;;12.40;9.58;;;;;;;-1.28;79.71;102815.45;1759138;80;21018;-76
2022/02/13 04:00:37;;;;;;;11.95;9.03;;;;;;;-1.27;79.83;102815.03;1759112;81;20884;-77
2022/02/13 04:03:04;;;;;;;16.20;9.63;;;;;;;-1.28;79.57;102820.60;1758811;81;20916;-74
2022/02/13 04:05:33;;;;;;;15.53;9.88;;;;;;;-1.33;79.28;102818.77;1759098;81;20960;-73
2022/02/13 04:08:00;;;;;;;17.52;9.60;;;;;;;-1.36;79.28;102820.82;1758450;80;20892;-75
2022/02/13 04:10:27;;;;;;;16.32;9.58;;;;;;;-1.39;79.13;102819.89;1752549;80;20920;-76
2022/02/13 04:12:55;;;;;;;17.30;9.83;;;;;;;-1.44;79.14;102821.06;1745140;81;20877;-75
2022/02/13 04:15:22;;;;;;;14.10;9.23;;;;;;;-1.47;79.34;102818.40;1745313;81;20976;-76
2022/02/13 04:17:49;;;;;;;14.65;8.98;;;;;;;-1.46;79.67;102824.02;1745332;80;21520;-76
2022/02/13 04:20:16;;;;;;;14.47;9.03;;;;;;;-1.41;79.80;102821.55;1745154;80;20913;-77
2022/02/13 04:22:43;;;;;;;16.93;8.98;;;;;;;-1.40;79.78;102829.72;1744787;81;20889;-76
2022/02/13 04:25:10;;;;;;;14.85;9.75;;;;;;;-1.38;79.75;102825.09;1744754;81;20940;-76
2022/02/13 04:27:36;;;;;;;16.52;9.33;;;;;;;-1.38;79.65;102826.37;1744648;81;21382;-76
2022/02/13 04:30:05;;;;;;;12.95;9.28;;;;;;;-1.39;79.63;102831.05;1744661;81;21517;-76
2022/02/13 04:32:33;;;;;;;12.73;9.15;;;;;;;-1.36;79.73;102833.69;1744575;81;20869;-78
2022/02/13 04:35:01;;;;;;;13.48;9.30;;;;;;;-1.34;79.70;102841.03;1744660;81;21085;-76
2022/02/13 04:37:28;;;;;;;21.68;12.70;;;;;;;-1.35;79.74;102841.88;1744627;81;20932;-75
2022/02/13 04:39:55;;;;;;;15.45;10.10;;;;;;;-1.37;79.73;102847.41;1745009;81;20960;-76
2022/02/13 04:42:22;;;;;;;14.15;10.18;;;;;;;-1.37;79.76;102858.98;1744818;81;21976;-76
2022/02/13 04:44:48;;;;;;;16.23;11.38;;;;;;;-1.39;79.78;102856.78;1744885;81;20940;-75
2022/02/13 04:47:16;;;;;;;14.87;10.08;;;;;;;-1.40;79.85;102856.34;1744723;81;20870;-75
2022/02/13 04:49:42;;;;;;;16.57;10.95;;;;;;;-1.39;79.85;102862.36;1744951;81;20940;-76
2022/02/13 04:52:10;;;;;;;19.07;11.97;;;;;;;-1.38;79.85;102866.27;1744799;81;20976;-75
2022/02/13 04:54:37;;;;;;;26.40;15.40;;;;;;;-1.37;79.82;102864.13;1744925;81;21162;-77
2022/02/13 04:57:06;;;;;;;17.12;11.33;;;;;;;-1.35;79.82;102876.63;1744618;80;20878;-75
2022/02/13 04:59:36;;;;;;;13.48;9.85;;;;;;;-1.34;79.71;102871.92;1744539;81;20893;-76
2022/02/13 05:02:02;;;;;;;16.37;9.00;;;;;;;-1.33;79.63;102878.83;1744524;81;20949;-77
2022/02/13 05:04:29;;;;;;;13.83;9.13;;;;;;;-1.34;79.54;102878.36;1744756;81;20996;-77
2022/02/13 05:06:56;;;;;;;13.55;9.45;;;;;;;-1.33;79.49;102882.69;1744470;81;21330;-76
2022/02/13 05:09:25;;;;;;;14.55;9.08;;;;;;;-1.33;79.68;102886.55;1744700;81;20889;-77
2022/02/13 05:11:55;;;;;;;15.88;10.03;;;;;;;-1.28;79.74;102882.38;1755925;80;20927;-75
2022/02/13 05:14:22;;;;;;;19.70;11.65;;;;;;;-1.24;79.77;102891.06;1758210;81;21394;-75
2022/02/13 05:16:49;;;;;;;41.83;20.57;;;;;;;-1.22;79.81;102892.37;1757962;81;20977;-76
2022/02/13 05:19:16;;;;;;;39.35;19.37;;;;;;;-1.19;79.82;102888.60;1758300;81;21125;-75
2022/02/13 05:21:44;;;;;;;35.63;18.95;;;;;;;-1.18;79.78;102892.91;1757834;81;20861;-77
2022/02/13 05:24:11;;;;;;;32.28;18.30;;;;;;;-1.17;79.78;102891.66;1757951;81;20932;-77
2022/02/13 05:26:38;;;;;;;31.52;16.70;;;;;;;-1.14;79.80;102885.30;1757926;81;21093;-76
2022/02/13 05:29:06;;;;;;;33.30;18.30;;;;;;;-1.13;79.65;102892.20;1758069;81;20857;-75
2022/02/13 05:31:34;;;;;;;37.45;18.23;;;;;;;-1.15;79.45;102885.28;1740808;81;21165;-77
2022/02/13 05:34:01;;;;;;;32.38;17.57;;;;;;;-1.18;79.34;102891.62;1757895;81;20987;-75
2022/02/13 05:36:28;;;;;;;36.73;18.98;;;;;;;-1.17;79.54;102895.95;1758001;81;21528;-76
2022/02/13 05:38:55;;;;;;;43.63;20.25;;;;;;;-1.13;79.74;102895.20;1757968;81;20864;-75
2022/02/13 05:41:23;;;;;;;44.98;25.27;;;;;;;-1.07;79.74;102905.63;1757914;81;20976;-76
2022/02/13 05:43:50;;;;;;;46.40;26.10;;;;;;;-1.02;79.79;102907.03;1757874;81;21156;-75
2022/02/13 05:46:17;;;;;;;54.20;28.15;;;;;;;-1.00;79.70;102906.27;1757766;80;20880;-77
2022/02/13 05:48:45;;;;;;;59.50;31.68;;;;;;;-0.99;79.56;102911.85;1758210;81;20972;-75
2022/02/13 05:51:14;;;;;;;50.88;26.27;;;;;;;-0.99;79.47;102913.14;1757864;81;21461;-76
2022/02/13 05:53:41;;;;;;;47.13;26.15;;;;;;;-0.95;79.59;102904.66;1758240;80;20920;-75
2022/02/13 05:56:08;;;;;;;48.70;26.97;;;;;;;-0.77;80.00;102905.52;1757975;81;21164;-75
2022/02/13 05:58:40;;;;;;;49.13;25.90;;;;;;;-0.49;80.23;102900.60;1757799;81;20920;-75
2022/02/13 06:01:03;;;;;;;53.63;27.75;;;;;;;-0.21;79.96;102898.19;1757488;81;20912;-74
2022/02/13 06:03:30;;;;;;;46.98;27.20;;;;;;;0.07;79.69;102901.37;1758249;80;20908;-74
2022/02/13 06:05:58;;;;;;;49.70;27.07;;;;;;;0.42;79.40;102908.91;1758157;81;20999;-73
2022/02/13 06:08:25;;;;;;;50.90;28.50;;;;;;;0.75;78.89;102903.92;1757928;81;21144;-74
2022/02/13 06:10:52;;;;;;;65.62;34.65;;;;;;;1.19;78.44;102902.52;1757807;81;20925;-75
2022/02/13 06:13:19;;;;;;;69.35;32.75;;;;;;;1.68;77.83;102900.64;1757873;81;20916;-74
2022/02/13 06:15:47;;;;;;;57.58;29.05;;;;;;;2.21;76.94;102904.34;1757791;81;20975;-73
2022/02/13 06:18:14;;;;;;;59.65;30.50;;;;;;;2.77;75.68;102904.92;1757837;80;21536;-73
2022/02/13 06:20:41;;;;;;;50.78;28.75;;;;;;;3.26;74.43;102902.30;1757871;80;21564;-73
2022/02/13 06:23:09;;;;;;;51.50;30.17;;;;;;;3.83;73.44;102907.84;1757720;81;20857;-73
2022/02/13 06:25:36;;;;;;;45.90;26.42;;;;;;;4.46;72.65;102911.97;1758088;81;20964;-73
2022/02/13 06:28:04;;;;;;;48.45;28.30;;;;;;;5.13;71.22;102907.27;1757743;81;20959;-73
2022/02/13 06:30:32;;;;;;;42.15;24.98;;;;;;;5.78;68.82;102904.55;1758148;80;20927;-74
2022/02/13 06:33:02;;;;;;;45.48;25.95;;;;;;;6.40;66.42;102916.50;1757809;80;21677;-73
2022/02/13 06:35:31;;;;;;;36.53;20.15;;;;;;;6.98;64.09;102913.94;1757842;81;20932;-74
2022/02/13 06:38:00;;;;;;;34.70;20.40;;;;;;;7.50;61.10;102909.98;1757797;80;21457;-76
2022/02/13 06:40:29;;;;;;;40.52;21.93;;;;;;;7.66;59.63;102910.67;1757617;80;21066;-75
2022/02/13 06:42:56;;;;;;;35.68;20.12;;;;;;;7.46;58.08;102916.11;1757629;81;20852;-74
2022/02/13 06:45:24;;;;;;;36.75;21.37;;;;;;;7.11;57.60;102913.38;1758112;81;21116;-74
2022/02/13 06:47:52;;;;;;;39.40;21.73;;;;;;;6.71;57.50;102914.98;1757661;81;20944;-74
2022/02/13 06:50:19;;;;;;;36.50;22.87;;;;;;;6.25;57.75;102908.76;1757662;81;20924;-74
2022/02/13 06:52:46;;;;;;;36.75;21.27;;;;;;;5.80;58.37;102908.02;1758027;81;20908;-72
2022/02/13 06:55:13;;;;;;;44.45;24.23;;;;;;;5.40;58.80;102910.71;1757738;81;20913;-74
2022/02/13 06:57:49;;;;;;;41.42;22.20;;;;;;;5.03;59.29;102917.70;1757859;81;21201;-72
2022/02/13 07:00:17;;;;;;;39.88;22.60;;;;;;;4.68;59.85;102916.78;1757780;81;20881;-74
2022/02/13 07:02:44;;;;;;;41.23;22.22;;;;;;;4.28;60.35;102916.68;1757774;81;20908;-73
2022/02/13 07:05:12;;;;;;;39.65;22.73;;;;;;;3.93;61.11;102913.53;1758183;80;20963;-75
2022/02/13 07:07:39;;;;;;;34.20;19.57;;;;;;;3.64;61.70;102916.39;1757804;80;21015;-75
2022/02/13 07:10:08;;;;;;;42.75;21.02;;;;;;;3.39;62.58;102908.88;1757873;81;21174;-73
2022/02/13 07:12:37;;;;;;;38.28;20.45;;;;;;;3.20;63.15;102913.95;1746203;80;20865;-75
2022/02/13 07:15:08;;;;;;;29.00;17.17;;;;;;;3.04;63.60;102916.81;1744489;81;20936;-75
2022/02/13 07:17:36;;;;;;;33.50;17.65;;;;;;;2.91;63.99;102922.75;1744546;81;20944;-73
2022/02/13 07:20:07;;;;;;;29.18;16.57;;;;;;;2.76;64.26;102914.42;1744561;81;21366;-76
2022/02/13 08:45:50;;;;;;;106.40;57.35;;;;;;;2.80;65.00;102905.83;1726865;82;21479;-77
2022/02/13 09:01:45;;;;;;;96.02;55.15;;;;;;;4.12;63.00;102899.33;1727300;83;21512;-77
2022/02/13 09:04:12;;;;;;;88.42;47.67;;;;;;;5.22;60.94;102892.09;1727416;81;20927;-78
2022/02/13 09:06:51;;;;;;;59.23;33.00;;;;;;;6.04;57.98;102891.47;1726983;83;20966;-80
2022/02/13 09:09:16;;;;;;;48.35;28.05;;;;;;;6.86;54.72;102897.06;1726879;80;21360;-77
2022/02/13 09:11:43;;;;;;;39.20;23.05;;;;;;;7.72;51.42;102887.11;1727033;83;21165;-78
2022/02/13 09:14:10;;;;;;;44.00;24.92;;;;;;;8.42;48.80;102884.48;1727402;81;21451;-78
2022/02/13 09:16:37;;;;;;;38.17;23.50;;;;;;;9.12;47.87;102879.44;1727472;83;20876;-78
2022/02/13 09:19:05;;;;;;;38.67;22.75;;;;;;;9.78;45.29;102877.31;1727289;83;21373;-77
2022/02/13 09:21:32;;;;;;;30.20;20.10;;;;;;;10.09;43.92;102868.81;1727287;83;20990;-80
2022/02/13 09:23:59;;;;;;;34.55;20.55;;;;;;;10.42;43.25;102868.55;1727517;83;21153;-82
2022/02/13 09:26:26;;;;;;;36.75;19.55;;;;;;;10.88;42.46;102868.75;1727268;83;20879;-79
2022/02/13 09:28:53;;;;;;;26.68;17.67;;;;;;;11.36;41.39;102863.13;1727369;81;20950;-77
2022/02/13 09:31:20;;;;;;;25.37;16.27;;;;;;;11.91;40.25;102865.97;1727240;82;20955;-79
2022/02/13 09:33:47;;;;;;;22.67;14.80;;;;;;;12.41;38.98;102866.20;1727324;83;21358;-78
2022/02/13 09:36:14;;;;;;;18.90;13.40;;;;;;;12.95;37.48;102858.32;1727250;83;21130;-79
2022/02/13 09:38:43;;;;;;;21.52;13.58;;;;;;;13.39;36.32;102853.31;1727445;83;20982;-77
2022/02/13 09:41:10;;;;;;;21.07;12.75;;;;;;;13.85;35.69;102855.11;1727439;83;21474;-78
2022/02/13 09:43:36;;;;;;;20.02;13.40;;;;;;;14.34;35.02;102854.98;1696750;81;20974;-80
2022/02/13 09:46:04;;;;;;;19.02;12.35;;;;;;;14.65;33.63;102849.34;1727275;81;20919;-75
2022/02/13 09:48:32;;;;;;;19.55;12.43;;;;;;;14.92;33.72;102843.82;1697212;83;21162;-80
2022/02/13 09:50:59;;;;;;;18.80;11.38;;;;;;;15.20;31.96;102847.43;1696564;83;20895;-80
2022/02/13 09:53:34;;;;;;;14.03;11.12;;;;;;;15.41;32.28;102844.79;1727622;83;21369;-80
2022/02/13 09:55:58;;;;;;;14.47;9.43;;;;;;;15.60;30.76;102840.36;1727821;81;20935;-81
2022/02/13 09:58:24;;;;;;;15.70;10.68;;;;;;;15.86;29.62;102840.99;1730759;80;20892;-83
2022/02/13 10:01:02;;;;;;;17.23;10.43;;;;;;;15.88;29.16;102838.66;1730195;83;20971;-80
2022/02/13 10:03:31;;;;;;;17.75;11.57;;;;;;;15.80;28.13;102839.48;1730040;83;21018;-78
2022/02/13 10:06:17;;;;;;;16.82;10.80;;;;;;;15.67;29.31;102833.88;1729033;83;20969;-75
2022/02/13 10:08:50;;;;;;;20.30;13.65;;;;;;;15.73;28.87;102829.64;1727973;83;21013;-79
2022/02/13 10:11:33;;;;;;;23.42;12.20;;;;;;;15.70;28.33;102822.30;1727352;81;20911;-81
2022/02/13 10:14:05;;;;;;;17.77;11.33;;;;;;;15.50;28.60;102821.89;1726655;82;21232;-80
2022/02/13 10:16:45;;;;;;;18.27;11.40;;;;;;;15.48;27.93;102813.16;1727464;83;20986;-79
2022/02/13 10:19:19;;;;;;;20.43;11.28;;;;;;;15.69;27.80;102817.92;1727998;83;21054;-75
2022/02/13 10:21:55;;;;;;;18.05;12.60;;;;;;;16.00;28.04;102809.42;1727751;81;20963;-82
2022/02/13 10:24:32;;;;;;;17.20;10.30;;;;;;;16.18;28.07;102810.80;1727949;83;20959;-86
2022/02/13 10:27:29;;;;;;;17.20;11.63;;;;;;;16.34;27.05;102801.16;1728506;83;21158;-85
2022/02/13 10:29:58;;;;;;;13.68;9.40;;;;;;;16.46;27.21;102795.74;1722841;83;20903;-86
2022/02/13 10:32:27;;;;;;;13.20;8.23;;;;;;;16.55;27.31;102795.28;1727801;83;21333;-77
2022/02/13 10:35:08;;;;;;;15.30;9.05;;;;;;;16.49;26.58;102789.80;1760782;81;20986;-76
2022/02/13 10:37:48;;;;;;;10.75;7.75;;;;;;;16.44;27.23;102796.28;1727461;81;21337;-77
2022/02/13 10:40:27;;;;;;;9.55;6.22;;;;;;;16.46;27.38;102790.45;1750633;82;21133;-79
2022/02/13 10:43:15;;;;;;;10.90;7.12;;;;;;;16.48;27.38;102783.28;1761176;80;21413;-75
2022/02/13 10:45:42;;;;;;;11.93;6.87;;;;;;;16.41;27.61;102782.73;1726729;81;20919;-74
2022/02/13 10:48:11;;;;;;;11.63;6.53;;;;;;;16.31;26.92;102778.34;1750397;81;20900;-75
2022/02/13 10:50:40;;;;;;;8.00;6.12;;;;;;;16.27;27.41;102770.62;1727283;83;20891;-73
2022/02/13 10:53:08;;;;;;;12.43;8.03;;;;;;;16.29;27.11;102779.36;1750636;81;21118;-74
2022/02/13 10:55:36;;;;;;;13.98;7.22;;;;;;;16.18;27.00;102775.06;1727225;82;20891;-74
2022/02/13 10:58:03;;;;;;;18.02;8.13;;;;;;;16.14;27.00;102778.31;1750768;81;20908;-74
2022/02/13 11:00:31;;;;;;;10.98;6.37;;;;;;;16.25;27.20;102780.00;1760739;81;20955;-73
2022/02/13 11:03:04;;;;;;;9.80;6.65;;;;;;;16.22;27.46;102776.63;1761226;81;21353;-73
2022/02/13 11:05:33;;;;;;;11.30;7.40;;;;;;;16.18;27.30;102776.38;1760866;80;20988;-74
2022/02/13 11:08:08;;;;;;;12.18;6.42;;;;;;;16.08;27.13;102770.70;1760589;81;20908;-74
2022/02/13 11:10:48;;;;;;;12.33;7.15;;;;;;;16.07;27.40;102761.02;1760851;80;20943;-75
2022/02/13 11:13:12;;;;;;;9.73;7.22;;;;;;;16.06;27.21;102754.88;1726413;81;20911;-74
2022/02/13 11:15:42;;;;;;;12.80;7.28;;;;;;;15.90;26.81;102757.89;1720957;82;21098;-74
2022/02/13 11:18:32;;;;;;;11.08;7.80;;;;;;;15.74;26.72;102748.52;1760725;81;21981;-75
2022/02/13 11:20:59;;;;;;;11.65;7.85;;;;;;;15.50;26.39;102746.52;1760945;81;20986;-74
2022/02/13 11:23:35;;;;;;;14.18;7.83;;;;;;;15.07;27.14;102739.22;1727424;82;20907;-74
2022/02/13 11:26:06;;;;;;;13.72;7.78;;;;;;;14.71;27.61;102737.28;1750387;82;21435;-73
2022/02/13 11:28:52;;;;;;;11.08;7.10;;;;;;;14.22;27.94;102736.70;1761140;81;20931;-74
2022/02/13 11:31:39;;;;;;;13.58;7.30;;;;;;;13.68;28.07;102730.95;1760743;80;21627;-74
2022/02/13 11:34:16;;;;;;;14.35;9.55;;;;;;;12.60;29.14;102728.27;1760952;80;21042;-74
2022/02/13 11:36:49;;;;;;;14.43;7.60;;;;;;;12.60;29.14;102728.27;1760901;80;20971;-76
2022/02/13 11:39:38;;;;;;;13.20;8.03;;;;;;;11.82;30.23;102728.20;1760940;80;21052;-76
2022/02/13 11:42:19;;;;;;;18.25;7.97;;;;;;;11.82;30.23;102728.20;1760969;80;20907;-75
2022/02/13 11:44:51;;;;;;;15.43;6.58;;;;;;;11.39;30.45;102719.00;1759790;79;21707;-71
2022/02/13 11:47:40;;;;;;;12.73;6.50;;;;;;;10.96;31.85;102712.34;1721829;82;21468;-76
2022/02/13 11:50:19;;;;;;;16.52;11.63;;;;;;;10.58;32.64;102708.99;1722048;83;20944;-75
2022/02/13 11:53:04;;;;;;;12.10;10.20;;;;;;;10.20;33.26;102703.40;1721383;83;21381;-75
2022/02/13 11:55:32;;;;;;;15.28;8.08;;;;;;;9.87;33.39;102704.19;1721843;83;20980;-80
2022/02/13 11:58:11;;;;;;;17.02;8.40;;;;;;;9.52;33.02;102703.22;1721951;83;21122;-74
2022/02/13 12:00:50;;;;;;;17.20;9.23;;;;;;;9.30;33.55;102700.20;1721902;83;20909;-74
2022/02/13 12:03:20;;;;;;;16.23;9.53;;;;;;;9.20;33.67;102699.97;1722040;83;20912;-79
2022/02/13 12:06:07;;;;;;;30.77;10.20;;;;;;;9.20;34.03;102695.19;1721929;83;20924;-77
2022/02/13 12:08:36;;;;;;;17.05;9.33;;;;;;;9.22;33.62;102694.26;1721924;83;21350;-77
2022/02/13 12:11:05;;;;;;;14.28;8.80;;;;;;;9.28;33.31;102688.90;1722093;83;21954;-80
2022/02/13 12:13:37;;;;;;;16.30;8.38;;;;;;;9.31;33.13;102691.89;1721540;83;20996;-79
2022/02/13 12:16:11;;;;;;;18.82;8.93;;;;;;;9.34;33.98;102692.70;1721954;83;20925;-76
2022/02/13 12:18:35;;;;;;;12.37;8.65;;;;;;;9.37;34.32;102695.70;1720361;83;20912;-76
2022/02/13 12:21:07;;;;;;;15.70;9.75;;;;;;;9.37;33.82;102689.16;1722115;83;20928;-76
2022/02/13 12:23:35;;;;;;;17.87;8.80;;;;;;;9.34;33.59;102689.23;1722221;83;21142;-76
2022/02/13 12:26:02;;;;;;;17.92;9.75;;;;;;;9.29;33.51;102691.06;1722033;83;20956;-77
2022/02/13 12:28:35;;;;;;;16.05;9.05;;;;;;;9.26;32.64;102696.38;1721948;83;20991;-76
2022/02/13 12:31:04;;;;;;;20.52;10.45;;;;;;;9.20;32.76;102694.73;1722238;83;21121;-76
2022/02/13 12:33:34;;;;;;;26.62;10.25;;;;;;;9.15;32.70;102694.43;1722257;83;20947;-76
2022/02/13 12:36:00;;;;;;;19.32;10.45;;;;;;;9.05;32.60;102699.86;1721968;83;21173;-76
2022/02/13 12:38:28;;;;;;;17.17;9.43;;;;;;;8.97;32.61;102694.36;1721969;83;21017;-75
2022/02/13 12:40:59;;;;;;;23.22;11.10;;;;;;;8.87;32.73;102700.20;1721865;83;21398;-75
2022/02/13 12:43:26;;;;;;;16.25;10.28;;;;;;;8.78;33.02;102691.22;1721803;83;20944;-77
2022/02/13 12:46:00;;;;;;;23.20;11.63;;;;;;;8.76;33.64;102690.39;1721184;83;20873;-75
2022/02/13 12:48:33;;;;;;;18.83;11.30;;;;;;;8.74;33.10;102694.36;1720373;83;21845;-76
2022/02/13 12:50:58;;;;;;;20.23;11.68;;;;;;;8.64;33.80;102692.80;1718054;83;21062;-75
2022/02/13 12:53:27;;;;;;;19.40;10.82;;;;;;;8.54;33.97;102691.23;1720045;83;20969;-75
2022/02/13 12:56:05;;;;;;;23.83;13.28;;;;;;;8.46;33.33;102689.62;1720052;83;20913;-76
2022/02/13 12:58:34;;;;;;;17.20;10.80;;;;;;;8.42;33.84;102686.64;1720148;82;20916;-75
2022/02/13 13:01:02;;;;;;;18.15;10.93;;;;;;;8.38;34.53;102685.38;1720429;83;21304;-74
2022/02/13 13:03:32;;;;;;;16.45;10.30;;;;;;;8.30;34.45;102692.92;1720099;83;20955;-74
2022/02/13 13:06:01;;;;;;;18.27;9.48;;;;;;;8.21;34.84;102685.69;1720115;83;21426;-76